Terminal Aerodrome Forecast
Issued by NWS Cleveland, OH

Home | Current Version | Previous Version | Graphics & Text | Print | Product List | Glossary Off
Versions: 1 2 3 4 5 6 7 8 9 10 11 12 13 14 15 16 17 18 19 20 21 22 23

000
FTUS41 KCLE 052300
TAFMFD
TAF
KMFD 052332Z 0600/0624 01010KT 6SM BR SCT050 BKN120
     FM060400 VRB03KT 5SM BR SCT025 BKN100
     FM060800 20003KT 3SM BR SCT012 BKN025
      TEMPO 0610/0614 1SM BR
     FM061500 27007KT P6SM BKN050 BKN120=

USA.gov is the U.S. government's official web portal to all federal, state and local government web resources and services.